sensor_id;sensor_type;location;lat;lon;timestamp;temperature;humidity
10964;DHT22;5534;48.784;9.190;2022-12-07T00:01:43;7.30;99.90
10964;DHT22;5534;48.784;9.190;2022-12-07T00:04:15;7.30;99.90
10964;DHT22;5534;48.784;9.190;2022-12-07T00:06:47;7.30;99.90
10964;DHT22;5534;48.784;9.190;2022-12-07T00:09:16;7.40;99.90
10964;DHT22;5534;48.784;9.190;2022-12-07T00:11:43;7.50;99.90
10964;DHT22;5534;48.784;9.190;2022-12-07T00:14:14;7.50;99.90
10964;DHT22;5534;48.784;9.190;2022-12-07T00:16:40;7.40;99.90
10964;DHT22;5534;48.784;9.190;2022-12-07T00:19:06;7.40;99.90
10964;DHT22;5534;48.784;9.190;2022-12-07T00:21:36;7.40;99.90
10964;DHT22;5534;48.784;9.190;2022-12-07T00:24:03;7.30;99.90
10964;DHT22;5534;48.784;9.190;2022-12-07T00:26:32;7.40;99.90
10964;DHT22;5534;48.784;9.190;2022-12-07T00:29:03;7.40;99.90
10964;DHT22;5534;48.784;9.190;2022-12-07T00:34:05;7.40;99.90
10964;DHT22;5534;48.784;9.190;2022-12-07T00:36:32;7.20;99.90
10964;DHT22;5534;48.784;9.190;2022-12-07T00:39:00;7.20;99.90
10964;DHT22;5534;48.784;9.190;2022-12-07T00:41:28;7.20;99.90
10964;DHT22;5534;48.784;9.190;2022-12-07T00:43:55;7.40;99.90
10964;DHT22;5534;48.784;9.190;2022-12-07T00:46:22;7.20;99.90
10964;DHT22;5534;48.784;9.190;2022-12-07T00:48:52;7.10;99.90
10964;DHT22;5534;48.784;9.190;2022-12-07T00:51:20;7.20;99.90
10964;DHT22;5534;48.784;9.190;2022-12-07T00:53:46;7.40;99.90
10964;DHT22;5534;48.784;9.190;2022-12-07T00:59:12;7.40;99.90
10964;DHT22;5534;48.784;9.190;2022-12-07T01:01:39;7.40;99.90
10964;DHT22;5534;48.784;9.190;2022-12-07T01:04:05;7.50;99.90
10964;DHT22;5534;48.784;9.190;2022-12-07T01:06:31;7.30;99.90
10964;DHT22;5534;48.784;9.190;2022-12-07T01:09:00;7.30;99.90
10964;DHT22;5534;48.784;9.190;2022-12-07T01:11:28;7.30;99.90
10964;DHT22;5534;48.784;9.190;2022-12-07T01:13:56;7.30;99.90
10964;DHT22;5534;48.784;9.190;2022-12-07T01:16:24;7.40;99.90
10964;DHT22;5534;48.784;9.190;2022-12-07T01:18:52;7.40;99.90
10964;DHT22;5534;48.784;9.190;2022-12-07T01:21:24;7.40;99.90
10964;DHT22;5534;48.784;9.190;2022-12-07T01:23:51;7.30;99.90
10964;DHT22;5534;48.784;9.190;2022-12-07T01:26:22;7.30;99.90
10964;DHT22;5534;48.784;9.190;2022-12-07T01:28:49;7.30;99.90
10964;DHT22;5534;48.784;9.190;2022-12-07T01:31:18;7.20;99.90
10964;DHT22;5534;48.784;9.190;2022-12-07T01:33:47;7.30;99.90
10964;DHT22;5534;48.784;9.190;2022-12-07T01:36:17;7.20;99.90
10964;DHT22;5534;48.784;9.190;2022-12-07T01:38:45;7.30;99.90
10964;DHT22;5534;48.784;9.190;2022-12-07T01:41:12;7.20;99.90
10964;DHT22;5534;48.784;9.190;2022-12-07T01:44:15;7.20;99.90
10964;DHT22;5534;48.784;9.190;2022-12-07T01:49:27;7.20;99.90
10964;DHT22;5534;48.784;9.190;2022-12-07T01:54:41;7.30;99.90
10964;DHT22;5534;48.784;9.190;2022-12-07T01:57:08;7.30;99.90
10964;DHT22;5534;48.784;9.190;2022-12-07T01:59:34;7.30;99.90
10964;DHT22;5534;48.784;9.190;2022-12-07T02:02:02;7.20;99.90
10964;DHT22;5534;48.784;9.190;2022-12-07T02:04:29;7.20;99.90
10964;DHT22;5534;48.784;9.190;2022-12-07T02:06:55;7.20;99.90
10964;DHT22;5534;48.784;9.190;2022-12-07T02:09:23;7.20;99.90
10964;DHT22;5534;48.784;9.190;2022-12-07T02:11:49;7.20;99.90
10964;DHT22;5534;48.784;9.190;2022-12-07T02:14:18;7.30;99.90
10964;DHT22;5534;48.784;9.190;2022-12-07T02:25:14;7.20;99.90
10964;DHT22;5534;48.784;9.190;2022-12-07T02:27:52;7.10;99.90
10964;DHT22;5534;48.784;9.190;2022-12-07T02:30:23;7.10;99.90
10964;DHT22;5534;48.784;9.190;2022-12-07T02:36:00;7.10;99.90
10964;DHT22;5534;48.784;9.190;2022-12-07T02:41:31;7.20;99.90
10964;DHT22;5534;48.784;9.190;2022-12-07T02:44:02;7.20;99.90
10964;DHT22;5534;48.784;9.190;2022-12-07T02:46:38;7.20;99.90
10964;DHT22;5534;48.784;9.190;2022-12-07T02:49:07;7.10;99.90
10964;DHT22;5534;48.784;9.190;2022-12-07T02:51:34;7.10;99.90
10964;DHT22;5534;48.784;9.190;2022-12-07T02:54:14;7.20;99.90
10964;DHT22;5534;48.784;9.190;2022-12-07T02:56:49;7.30;99.90
10964;DHT22;5534;48.784;9.190;2022-12-07T03:13:12;7.20;99.90
10964;DHT22;5534;48.784;9.190;2022-12-07T03:15:50;7.20;99.90
10964;DHT22;5534;48.784;9.190;2022-12-07T03:18:21;7.10;99.90
10964;DHT22;5534;48.784;9.190;2022-12-07T03:20:50;6.80;99.90
10964;DHT22;5534;48.784;9.190;2022-12-07T03:23:18;7.00;99.90
10964;DHT22;5534;48.784;9.190;2022-12-07T03:25:51;7.00;99.90
10964;DHT22;5534;48.784;9.190;2022-12-07T03:28:20;7.20;99.90
10964;DHT22;5534;48.784;9.190;2022-12-07T03:33:31;7.30;99.90
10964;DHT22;5534;48.784;9.190;2022-12-07T03:36:04;7.30;99.90
10964;DHT22;5534;48.784;9.190;2022-12-07T03:38:42;7.30;99.90
10964;DHT22;5534;48.784;9.190;2022-12-07T03:41:23;7.00;99.90
10964;DHT22;5534;48.784;9.190;2022-12-07T03:43:50;7.10;99.90
10964;DHT22;5534;48.784;9.190;2022-12-07T03:48:54;7.00;99.90
10964;DHT22;5534;48.784;9.190;2022-12-07T03:51:26;7.10;99.90
10964;DHT22;5534;48.784;9.190;2022-12-07T03:54:49;7.20;99.90
10964;DHT22;5534;48.784;9.190;2022-12-07T03:56:56;7.20;99.90
10964;DHT22;5534;48.784;9.190;2022-12-07T03:59:23;7.10;99.90
10964;DHT22;5534;48.784;9.190;2022-12-07T04:01:55;7.20;99.90
10964;DHT22;5534;48.784;9.190;2022-12-07T04:04:22;7.00;99.90
10964;DHT22;5534;48.784;9.190;2022-12-07T04:06:49;6.90;99.90
10964;DHT22;5534;48.784;9.190;2022-12-07T04:09:15;7.10;99.90
10964;DHT22;5534;48.784;9.190;2022-12-07T04:11:41;7.10;99.90
10964;DHT22;5534;48.784;9.190;2022-12-07T04:14:06;7.20;99.90
10964;DHT22;5534;48.784;9.190;2022-12-07T04:16:49;7.20;99.90
10964;DHT22;5534;48.784;9.190;2022-12-07T04:19:15;7.30;99.90
10964;DHT22;5534;48.784;9.190;2022-12-07T04:21:42;7.30;99.90
10964;DHT22;5534;48.784;9.190;2022-12-07T04:24:08;7.20;99.90
10964;DHT22;5534;48.784;9.190;2022-12-07T04:26:34;7.10;99.90
10964;DHT22;5534;48.784;9.190;2022-12-07T04:28:59;6.80;99.90
10964;DHT22;5534;48.784;9.190;2022-12-07T04:31:25;6.50;99.90
10964;DHT22;5534;48.784;9.190;2022-12-07T04:33:51;6.50;99.90
10964;DHT22;5534;48.784;9.190;2022-12-07T04:36:17;6.00;99.90
10964;DHT22;5534;48.784;9.190;2022-12-07T04:38:46;6.40;99.90
10964;DHT22;5534;48.784;9.190;2022-12-07T04:41:12;6.70;99.90
10964;DHT22;5534;48.784;9.190;2022-12-07T04:43:38;6.70;99.90
10964;DHT22;5534;48.784;9.190;2022-12-07T04:46:04;6.60;99.90
10964;DHT22;5534;48.784;9.190;2022-12-07T04:48:30;6.30;99.90
10964;DHT22;5534;48.784;9.190;2022-12-07T04:50:56;6.30;99.90
10964;DHT22;5534;48.784;9.190;2022-12-07T04:53:22;6.40;99.90
10964;DHT22;5534;48.784;9.190;2022-12-07T04:55:47;6.10;99.90
10964;DHT22;5534;48.784;9.190;2022-12-07T04:58:13;6.10;99.90
10964;DHT22;5534;48.784;9.190;2022-12-07T05:00:39;6.20;99.90
10964;DHT22;5534;48.784;9.190;2022-12-07T05:03:06;6.40;99.90
10964;DHT22;5534;48.784;9.190;2022-12-07T05:05:32;6.40;99.90
10964;DHT22;5534;48.784;9.190;2022-12-07T05:07:57;6.50;99.90
10964;DHT22;5534;48.784;9.190;2022-12-07T05:10:23;6.80;99.90
10964;DHT22;5534;48.784;9.190;2022-12-07T05:12:49;7.00;99.90
10964;DHT22;5534;48.784;9.190;2022-12-07T05:15:15;7.10;99.90
10964;DHT22;5534;48.784;9.190;2022-12-07T05:17:41;7.20;99.90
10964;DHT22;5534;48.784;9.190;2022-12-07T05:20:08;7.10;99.90
10964;DHT22;5534;48.784;9.190;2022-12-07T05:22:34;7.10;99.90
10964;DHT22;5534;48.784;9.190;2022-12-07T05:25:00;7.10;99.90
10964;DHT22;5534;48.784;9.190;2022-12-07T05:27:26;7.20;99.90
10964;DHT22;5534;48.784;9.190;2022-12-07T05:29:51;7.10;99.90
10964;DHT22;5534;48.784;9.190;2022-12-07T05:32:17;7.10;99.90
10964;DHT22;5534;48.784;9.190;2022-12-07T05:34:43;7.00;99.90
10964;DHT22;5534;48.784;9.190;2022-12-07T05:37:09;7.00;99.90
10964;DHT22;5534;48.784;9.190;2022-12-07T05:39:36;6.90;99.90
10964;DHT22;5534;48.784;9.190;2022-12-07T05:42:03;6.90;99.90
10964;DHT22;5534;48.784;9.190;2022-12-07T05:44:44;6.90;99.90
10964;DHT22;5534;48.784;9.190;2022-12-07T05:47:14;6.70;99.90
10964;DHT22;5534;48.784;9.190;2022-12-07T05:49:40;6.70;99.90
10964;DHT22;5534;48.784;9.190;2022-12-07T05:52:06;6.90;99.90
10964;DHT22;5534;48.784;9.190;2022-12-07T05:54:32;6.80;99.90
10964;DHT22;5534;48.784;9.190;2022-12-07T05:56:58;6.70;99.90
10964;DHT22;5534;48.784;9.190;2022-12-07T05:59:24;6.70;99.90
10964;DHT22;5534;48.784;9.190;2022-12-07T06:01:59;6.40;99.90
10964;DHT22;5534;48.784;9.190;2022-12-07T06:04:29;6.00;99.90
10964;DHT22;5534;48.784;9.190;2022-12-07T06:06:55;6.20;99.90
10964;DHT22;5534;48.784;9.190;2022-12-07T06:09:22;6.50;99.90
10964;DHT22;5534;48.784;9.190;2022-12-07T06:11:48;6.60;99.90
10964;DHT22;5534;48.784;9.190;2022-12-07T06:14:33;6.70;99.90
10964;DHT22;5534;48.784;9.190;2022-12-07T06:16:59;6.70;99.90
10964;DHT22;5534;48.784;9.190;2022-12-07T06:19:25;6.70;99.90
10964;DHT22;5534;48.784;9.190;2022-12-07T06:21:51;6.70;99.90
10964;DHT22;5534;48.784;9.190;2022-12-07T06:24:17;6.80;99.90
10964;DHT22;5534;48.784;9.190;2022-12-07T06:26:43;6.80;99.90
10964;DHT22;5534;48.784;9.190;2022-12-07T06:29:12;6.20;99.90
10964;DHT22;5534;48.784;9.190;2022-12-07T06:31:39;6.40;99.90
10964;DHT22;5534;48.784;9.190;2022-12-07T06:34:08;6.60;99.90
10964;DHT22;5534;48.784;9.190;2022-12-07T06:36:37;6.70;99.90
10964;DHT22;5534;48.784;9.190;2022-12-07T06:39:04;6.70;99.90
10964;DHT22;5534;48.784;9.190;2022-12-07T06:41:33;6.80;99.90
10964;DHT22;5534;48.784;9.190;2022-12-07T06:43:59;6.80;99.90
10964;DHT22;5534;48.784;9.190;2022-12-07T06:46:25;6.80;99.90
10964;DHT22;5534;48.784;9.190;2022-12-07T06:48:51;6.90;99.90
10964;DHT22;5534;48.784;9.190;2022-12-07T06:51:17;6.80;99.90
10964;DHT22;5534;48.784;9.190;2022-12-07T06:53:43;6.80;99.90
10964;DHT22;5534;48.784;9.190;2022-12-07T06:56:08;6.80;99.90
10964;DHT22;5534;48.784;9.190;2022-12-07T06:58:34;6.90;99.90
10964;DHT22;5534;48.784;9.190;2022-12-07T07:01:00;6.90;99.90
10964;DHT22;5534;48.784;9.190;2022-12-07T07:03:25;7.00;99.90
10964;DHT22;5534;48.784;9.190;2022-12-07T07:05:51;6.70;99.90
10964;DHT22;5534;48.784;9.190;2022-12-07T07:08:17;6.60;99.90
10964;DHT22;5534;48.784;9.190;2022-12-07T07:10:43;6.60;99.90
10964;DHT22;5534;48.784;9.190;2022-12-07T07:13:10;6.70;99.90
10964;DHT22;5534;48.784;9.190;2022-12-07T07:15:38;6.80;99.90
10964;DHT22;5534;48.784;9.190;2022-12-07T07:18:04;7.00;99.90
10964;DHT22;5534;48.784;9.190;2022-12-07T07:20:30;6.90;99.90
10964;DHT22;5534;48.784;9.190;2022-12-07T07:22:56;6.80;99.90
10964;DHT22;5534;48.784;9.190;2022-12-07T07:25:21;6.70;99.90
10964;DHT22;5534;48.784;9.190;2022-12-07T07:27:47;6.70;99.90
10964;DHT22;5534;48.784;9.190;2022-12-07T07:30:13;6.80;99.90
10964;DHT22;5534;48.784;9.190;2022-12-07T07:32:39;6.70;99.90
10964;DHT22;5534;48.784;9.190;2022-12-07T07:35:05;6.90;99.90
10964;DHT22;5534;48.784;9.190;2022-12-07T07:37:32;6.80;99.90
10964;DHT22;5534;48.784;9.190;2022-12-07T07:39:57;6.60;99.90
10964;DHT22;5534;48.784;9.190;2022-12-07T07:42:23;6.80;99.90
10964;DHT22;5534;48.784;9.190;2022-12-07T07:44:49;6.80;99.90
10964;DHT22;5534;48.784;9.190;2022-12-07T07:47:15;7.00;99.90
10964;DHT22;5534;48.784;9.190;2022-12-07T07:49:40;6.90;99.90
10964;DHT22;5534;48.784;9.190;2022-12-07T07:52:06;6.90;99.90
10964;DHT22;5534;48.784;9.190;2022-12-07T07:54:32;6.70;99.90
10964;DHT22;5534;48.784;9.190;2022-12-07T07:56:58;6.80;99.90
10964;DHT22;5534;48.784;9.190;2022-12-07T07:59:24;6.90;99.90
10964;DHT22;5534;48.784;9.190;2022-12-07T08:01:50;7.00;99.90
10964;DHT22;5534;48.784;9.190;2022-12-07T08:04:16;6.90;99.90
10964;DHT22;5534;48.784;9.190;2022-12-07T08:06:43;6.80;99.90
10964;DHT22;5534;48.784;9.190;2022-12-07T08:09:09;7.00;99.90
10964;DHT22;5534;48.784;9.190;2022-12-07T08:11:35;6.80;99.90
10964;DHT22;5534;48.784;9.190;2022-12-07T08:14:02;6.90;99.90
10964;DHT22;5534;48.784;9.190;2022-12-07T08:16:28;7.00;99.90
10964;DHT22;5534;48.784;9.190;2022-12-07T08:18:54;6.80;99.90
10964;DHT22;5534;48.784;9.190;2022-12-07T08:21:19;6.90;99.90
10964;DHT22;5534;48.784;9.190;2022-12-07T08:23:45;6.90;99.90
10964;DHT22;5534;48.784;9.190;2022-12-07T08:26:14;6.90;99.90
10964;DHT22;5534;48.784;9.190;2022-12-07T08:28:40;7.00;99.90
10964;DHT22;5534;48.784;9.190;2022-12-07T08:31:10;6.90;99.90
10964;DHT22;5534;48.784;9.190;2022-12-07T08:33:37;6.80;99.90
10964;DHT22;5534;48.784;9.190;2022-12-07T08:36:06;6.90;99.90
10964;DHT22;5534;48.784;9.190;2022-12-07T08:38:34;7.10;99.90
10964;DHT22;5534;48.784;9.190;2022-12-07T08:41:00;7.10;99.90
10964;DHT22;5534;48.784;9.190;2022-12-07T08:43:26;6.90;99.90
10964;DHT22;5534;48.784;9.190;2022-12-07T08:46:22;6.90;99.90
10964;DHT22;5534;48.784;9.190;2022-12-07T08:48:54;7.00;99.90
10964;DHT22;5534;48.784;9.190;2022-12-07T08:51:22;6.90;99.90
10964;DHT22;5534;48.784;9.190;2022-12-07T08:53:49;6.90;99.90
10964;DHT22;5534;48.784;9.190;2022-12-07T08:56:15;7.00;99.90
10964;DHT22;5534;48.784;9.190;2022-12-07T08:58:42;7.10;99.90
10964;DHT22;5534;48.784;9.190;2022-12-07T09:01:08;7.40;99.90
10964;DHT22;5534;48.784;9.190;2022-12-07T09:03:33;7.60;99.90
10964;DHT22;5534;48.784;9.190;2022-12-07T09:06:00;7.50;99.90
10964;DHT22;5534;48.784;9.190;2022-12-07T09:08:34;7.60;99.90
10964;DHT22;5534;48.784;9.190;2022-12-07T09:11:01;7.70;99.90
10964;DHT22;5534;48.784;9.190;2022-12-07T09:13:27;7.50;99.90
10964;DHT22;5534;48.784;9.190;2022-12-07T09:15:53;7.70;99.90
10964;DHT22;5534;48.784;9.190;2022-12-07T09:18:18;7.60;99.90
10964;DHT22;5534;48.784;9.190;2022-12-07T09:20:44;7.40;99.90
10964;DHT22;5534;48.784;9.190;2022-12-07T09:23:10;7.60;99.90
10964;DHT22;5534;48.784;9.190;2022-12-07T09:25:36;7.40;99.90
10964;DHT22;5534;48.784;9.190;2022-12-07T09:28:02;7.60;99.90
10964;DHT22;5534;48.784;9.190;2022-12-07T09:30:31;7.60;99.90
10964;DHT22;5534;48.784;9.190;2022-12-07T09:32:57;7.50;99.90
10964;DHT22;5534;48.784;9.190;2022-12-07T09:35:24;7.40;99.90
10964;DHT22;5534;48.784;9.190;2022-12-07T09:37:50;7.40;99.90
10964;DHT22;5534;48.784;9.190;2022-12-07T09:40:18;7.20;99.90
10964;DHT22;5534;48.784;9.190;2022-12-07T09:42:48;7.40;99.90
10964;DHT22;5534;48.784;9.190;2022-12-07T09:45:33;7.60;99.90
10964;DHT22;5534;48.784;9.190;2022-12-07T09:48:02;7.50;99.90
10964;DHT22;5534;48.784;9.190;2022-12-07T09:50:29;7.70;99.90
10964;DHT22;5534;48.784;9.190;2022-12-07T09:55:45;8.10;99.90
10964;DHT22;5534;48.784;9.190;2022-12-07T09:58:31;8.30;99.90
10964;DHT22;5534;48.784;9.190;2022-12-07T10:03:38;8.10;99.90
10964;DHT22;5534;48.784;9.190;2022-12-07T10:06:06;8.20;99.90
10964;DHT22;5534;48.784;9.190;2022-12-07T10:08:32;8.00;99.90
10964;DHT22;5534;48.784;9.190;2022-12-07T10:11:01;8.10;99.90
10964;DHT22;5534;48.784;9.190;2022-12-07T10:13:37;8.10;99.90
10964;DHT22;5534;48.784;9.190;2022-12-07T10:16:04;8.10;99.90
10964;DHT22;5534;48.784;9.190;2022-12-07T10:18:41;7.90;99.90
10964;DHT22;5534;48.784;9.190;2022-12-07T10:21:24;7.60;99.90
10964;DHT22;5534;48.784;9.190;2022-12-07T10:26:51;7.90;99.90
10964;DHT22;5534;48.784;9.190;2022-12-07T10:29:23;8.00;99.90
10964;DHT22;5534;48.784;9.190;2022-12-07T10:32:01;8.00;99.90
10964;DHT22;5534;48.784;9.190;2022-12-07T10:34:31;7.90;99.90
10964;DHT22;5534;48.784;9.190;2022-12-07T10:37:28;8.10;99.90
10964;DHT22;5534;48.784;9.190;2022-12-07T10:39:55;8.00;99.90
10964;DHT22;5534;48.784;9.190;2022-12-07T10:48:05;7.90;99.90
10964;DHT22;5534;48.784;9.190;2022-12-07T11:01:37;8.10;99.90
10964;DHT22;5534;48.784;9.190;2022-12-07T11:07:18;8.10;99.90
10964;DHT22;5534;48.784;9.190;2022-12-07T11:10:07;8.00;99.90
10964;DHT22;5534;48.784;9.190;2022-12-07T11:18:30;7.90;99.90
10964;DHT22;5534;48.784;9.190;2022-12-07T11:21:43;8.00;99.90
10964;DHT22;5534;48.784;9.190;2022-12-07T11:24:17;8.00;99.90
10964;DHT22;5534;48.784;9.190;2022-12-07T11:29:43;8.00;99.90
10964;DHT22;5534;48.784;9.190;2022-12-07T11:35:38;8.10;99.90
10964;DHT22;5534;48.784;9.190;2022-12-07T11:38:16;8.00;99.90
10964;DHT22;5534;48.784;9.190;2022-12-07T11:40:48;8.00;99.90
10964;DHT22;5534;48.784;9.190;2022-12-07T11:43:25;8.00;99.90
10964;DHT22;5534;48.784;9.190;2022-12-07T11:46:04;8.10;99.90
10964;DHT22;5534;48.784;9.190;2022-12-07T11:48:42;8.00;99.90
10964;DHT22;5534;48.784;9.190;2022-12-07T11:51:11;7.90;99.90
10964;DHT22;5534;48.784;9.190;2022-12-07T11:53:49;7.90;99.90
10964;DHT22;5534;48.784;9.190;2022-12-07T11:56:20;7.90;99.90
10964;DHT22;5534;48.784;9.190;2022-12-07T12:04:23;8.00;99.90
10964;DHT22;5534;48.784;9.190;2022-12-07T12:06:52;7.80;99.90
10964;DHT22;5534;48.784;9.190;2022-12-07T12:09:40;7.80;99.90
10964;DHT22;5534;48.784;9.190;2022-12-07T12:20:49;7.60;99.90
10964;DHT22;5534;48.784;9.190;2022-12-07T12:23:40;7.70;99.90
10964;DHT22;5534;48.784;9.190;2022-12-07T12:26:14;7.80;99.90
10964;DHT22;5534;48.784;9.190;2022-12-07T12:29:02;7.80;99.90
10964;DHT22;5534;48.784;9.190;2022-12-07T12:34:29;7.90;99.90
10964;DHT22;5534;48.784;9.190;2022-12-07T12:36:49;7.70;99.90
10964;DHT22;5534;48.784;9.190;2022-12-07T12:39:17;7.70;99.90
10964;DHT22;5534;48.784;9.190;2022-12-07T12:41:52;7.50;99.90
10964;DHT22;5534;48.784;9.190;2022-12-07T12:47:37;7.70;99.90
10964;DHT22;5534;48.784;9.190;2022-12-07T12:50:15;7.80;99.90
10964;DHT22;5534;48.784;9.190;2022-12-07T12:57:37;7.80;99.90
10964;DHT22;5534;48.784;9.190;2022-12-07T13:02:53;7.70;99.90
10964;DHT22;5534;48.784;9.190;2022-12-07T13:05:22;7.80;99.90
10964;DHT22;5534;48.784;9.190;2022-12-07T13:07:55;7.50;99.90
10964;DHT22;5534;48.784;9.190;2022-12-07T13:13:00;7.70;99.90
10964;DHT22;5534;48.784;9.190;2022-12-07T13:15:50;7.60;99.90
10964;DHT22;5534;48.784;9.190;2022-12-07T13:23:39;7.90;99.90
10964;DHT22;5534;48.784;9.190;2022-12-07T13:29:16;7.70;99.90
10964;DHT22;5534;48.784;9.190;2022-12-07T13:31:47;7.90;99.90
10964;DHT22;5534;48.784;9.190;2022-12-07T13:34:36;7.90;99.90
10964;DHT22;5534;48.784;9.190;2022-12-07T13:37:12;7.90;99.90
10964;DHT22;5534;48.784;9.190;2022-12-07T13:39:51;7.90;99.90
10964;DHT22;5534;48.784;9.190;2022-12-07T13:42:34;7.70;99.90
10964;DHT22;5534;48.784;9.190;2022-12-07T13:45:22;7.70;99.90
10964;DHT22;5534;48.784;9.190;2022-12-07T13:48:31;7.80;99.90
10964;DHT22;5534;48.784;9.190;2022-12-07T13:51:00;7.90;99.90
10964;DHT22;5534;48.784;9.190;2022-12-07T13:53:28;8.00;99.90
10964;DHT22;5534;48.784;9.190;2022-12-07T13:56:00;8.00;99.90
10964;DHT22;5534;48.784;9.190;2022-12-07T13:58:30;7.90;99.90
10964;DHT22;5534;48.784;9.190;2022-12-07T14:00:56;7.80;99.90
10964;DHT22;5534;48.784;9.190;2022-12-07T14:03:34;7.80;99.90
10964;DHT22;5534;48.784;9.190;2022-12-07T14:06:17;7.90;99.90
10964;DHT22;5534;48.784;9.190;2022-12-07T14:08:43;8.00;99.90
10964;DHT22;5534;48.784;9.190;2022-12-07T14:11:19;8.00;99.90
10964;DHT22;5534;48.784;9.190;2022-12-07T14:14:05;7.90;99.90
10964;DHT22;5534;48.784;9.190;2022-12-07T14:16:36;7.80;99.90
10964;DHT22;5534;48.784;9.190;2022-12-07T14:19:06;7.70;99.90
10964;DHT22;5534;48.784;9.190;2022-12-07T14:22:09;7.50;99.90
10964;DHT22;5534;48.784;9.190;2022-12-07T14:24:44;7.60;99.90
10964;DHT22;5534;48.784;9.190;2022-12-07T14:27:23;7.80;99.90
10964;DHT22;5534;48.784;9.190;2022-12-07T14:29:51;7.90;99.90
10964;DHT22;5534;48.784;9.190;2022-12-07T14:32:25;7.80;99.90
10964;DHT22;5534;48.784;9.190;2022-12-07T14:35:09;7.80;99.90
10964;DHT22;5534;48.784;9.190;2022-12-07T14:37:36;7.80;99.90
10964;DHT22;5534;48.784;9.190;2022-12-07T14:40:02;7.80;99.90
10964;DHT22;5534;48.784;9.190;2022-12-07T14:42:29;7.80;99.90
10964;DHT22;5534;48.784;9.190;2022-12-07T14:44:57;7.90;99.90
10964;DHT22;5534;48.784;9.190;2022-12-07T14:47:24;7.80;99.90
10964;DHT22;5534;48.784;9.190;2022-12-07T14:49:50;7.90;99.90
10964;DHT22;5534;48.784;9.190;2022-12-07T14:52:23;7.80;99.90
10964;DHT22;5534;48.784;9.190;2022-12-07T14:54:50;7.90;99.90
10964;DHT22;5534;48.784;9.190;2022-12-07T14:57:16;7.90;99.90
10964;DHT22;5534;48.784;9.190;2022-12-07T14:59:42;7.90;99.90
10964;DHT22;5534;48.784;9.190;2022-12-07T15:02:11;7.80;99.90
10964;DHT22;5534;48.784;9.190;2022-12-07T15:04:37;7.80;99.90
10964;DHT22;5534;48.784;9.190;2022-12-07T15:07:06;7.80;99.90
10964;DHT22;5534;48.784;9.190;2022-12-07T15:09:31;7.60;99.90
10964;DHT22;5534;48.784;9.190;2022-12-07T15:11:58;7.60;99.90
10964;DHT22;5534;48.784;9.190;2022-12-07T15:14:23;7.70;99.90
10964;DHT22;5534;48.784;9.190;2022-12-07T15:16:49;7.80;99.90
10964;DHT22;5534;48.784;9.190;2022-12-07T15:19:17;7.80;99.90
10964;DHT22;5534;48.784;9.190;2022-12-07T15:21:45;7.70;99.90
10964;DHT22;5534;48.784;9.190;2022-12-07T15:24:11;7.40;99.90
10964;DHT22;5534;48.784;9.190;2022-12-07T15:26:38;7.10;99.90
10964;DHT22;5534;48.784;9.190;2022-12-07T15:29:04;7.10;99.90
10964;DHT22;5534;48.784;9.190;2022-12-07T15:31:32;7.30;99.90
10964;DHT22;5534;48.784;9.190;2022-12-07T15:33:58;7.40;99.90
10964;DHT22;5534;48.784;9.190;2022-12-07T15:36:26;7.20;99.90
10964;DHT22;5534;48.784;9.190;2022-12-07T15:38:53;7.50;99.90
10964;DHT22;5534;48.784;9.190;2022-12-07T15:41:20;7.60;99.90
10964;DHT22;5534;48.784;9.190;2022-12-07T15:43:45;7.60;99.90
10964;DHT22;5534;48.784;9.190;2022-12-07T15:46:34;7.60;99.90
10964;DHT22;5534;48.784;9.190;2022-12-07T15:49:03;7.60;99.90
10964;DHT22;5534;48.784;9.190;2022-12-07T15:51:30;7.30;99.90
10964;DHT22;5534;48.784;9.190;2022-12-07T15:53:57;7.30;99.90
10964;DHT22;5534;48.784;9.190;2022-12-07T15:56:24;7.50;99.90
10964;DHT22;5534;48.784;9.190;2022-12-07T15:58:49;7.50;99.90
10964;DHT22;5534;48.784;9.190;2022-12-07T16:01:18;7.50;99.90
10964;DHT22;5534;48.784;9.190;2022-12-07T16:03:45;7.20;99.90
10964;DHT22;5534;48.784;9.190;2022-12-07T16:06:11;7.20;99.90
10964;DHT22;5534;48.784;9.190;2022-12-07T16:08:42;7.10;99.90
10964;DHT22;5534;48.784;9.190;2022-12-07T16:11:09;7.10;99.90
10964;DHT22;5534;48.784;9.190;2022-12-07T16:13:35;7.20;99.90
10964;DHT22;5534;48.784;9.190;2022-12-07T16:16:12;7.10;99.90
10964;DHT22;5534;48.784;9.190;2022-12-07T16:18:38;7.10;99.90
10964;DHT22;5534;48.784;9.190;2022-12-07T16:21:04;7.00;99.90
10964;DHT22;5534;48.784;9.190;2022-12-07T16:23:31;7.20;99.90
10964;DHT22;5534;48.784;9.190;2022-12-07T16:26:08;7.50;99.90
10964;DHT22;5534;48.784;9.190;2022-12-07T16:28:34;7.40;99.90
10964;DHT22;5534;48.784;9.190;2022-12-07T16:31:11;7.40;99.90
10964;DHT22;5534;48.784;9.190;2022-12-07T16:33:41;7.30;99.90
10964;DHT22;5534;48.784;9.190;2022-12-07T16:36:08;7.30;99.90
10964;DHT22;5534;48.784;9.190;2022-12-07T16:38:36;7.40;99.90
10964;DHT22;5534;48.784;9.190;2022-12-07T16:41:02;7.50;99.90
10964;DHT22;5534;48.784;9.190;2022-12-07T16:43:28;7.50;99.90
10964;DHT22;5534;48.784;9.190;2022-12-07T16:45:53;7.40;99.90
10964;DHT22;5534;48.784;9.190;2022-12-07T16:48:19;7.50;99.90
10964;DHT22;5534;48.784;9.190;2022-12-07T16:50:45;7.40;99.90
10964;DHT22;5534;48.784;9.190;2022-12-07T16:53:13;7.40;99.90
10964;DHT22;5534;48.784;9.190;2022-12-07T16:55:41;7.40;99.90
10964;DHT22;5534;48.784;9.190;2022-12-07T16:58:07;7.00;99.90
10964;DHT22;5534;48.784;9.190;2022-12-07T17:00:33;7.00;99.90
10964;DHT22;5534;48.784;9.190;2022-12-07T17:02:59;6.90;99.90
10964;DHT22;5534;48.784;9.190;2022-12-07T17:05:26;7.10;99.90
10964;DHT22;5534;48.784;9.190;2022-12-07T17:07:53;7.00;99.90
10964;DHT22;5534;48.784;9.190;2022-12-07T17:10:20;7.00;99.90
10964;DHT22;5534;48.784;9.190;2022-12-07T17:12:46;6.80;99.90
10964;DHT22;5534;48.784;9.190;2022-12-07T17:15:12;6.90;99.90
10964;DHT22;5534;48.784;9.190;2022-12-07T17:17:45;7.00;99.90
10964;DHT22;5534;48.784;9.190;2022-12-07T17:20:11;7.20;99.90
10964;DHT22;5534;48.784;9.190;2022-12-07T17:22:37;7.10;99.90
10964;DHT22;5534;48.784;9.190;2022-12-07T17:25:04;7.00;99.90
10964;DHT22;5534;48.784;9.190;2022-12-07T17:27:30;7.10;99.90
10964;DHT22;5534;48.784;9.190;2022-12-07T17:29:57;7.10;99.90
10964;DHT22;5534;48.784;9.190;2022-12-07T17:32:24;6.90;99.90
10964;DHT22;5534;48.784;9.190;2022-12-07T17:34:50;7.00;99.90
10964;DHT22;5534;48.784;9.190;2022-12-07T17:37:17;6.70;99.90
10964;DHT22;5534;48.784;9.190;2022-12-07T17:39:42;6.90;99.90
10964;DHT22;5534;48.784;9.190;2022-12-07T17:42:08;7.10;99.90
10964;DHT22;5534;48.784;9.190;2022-12-07T17:45:09;7.10;99.90
10964;DHT22;5534;48.784;9.190;2022-12-07T17:47:37;7.00;99.90
10964;DHT22;5534;48.784;9.190;2022-12-07T17:50:05;7.30;99.90
10964;DHT22;5534;48.784;9.190;2022-12-07T17:52:31;7.20;99.90
10964;DHT22;5534;48.784;9.190;2022-12-07T17:55:17;7.20;99.90
10964;DHT22;5534;48.784;9.190;2022-12-07T17:57:43;7.30;99.90
10964;DHT22;5534;48.784;9.190;2022-12-07T18:00:09;7.20;99.90
10964;DHT22;5534;48.784;9.190;2022-12-07T18:02:36;6.80;99.90
10964;DHT22;5534;48.784;9.190;2022-12-07T18:05:02;6.60;99.90
10964;DHT22;5534;48.784;9.190;2022-12-07T18:07:28;6.70;99.90
10964;DHT22;5534;48.784;9.190;2022-12-07T18:09:54;7.00;99.90
10964;DHT22;5534;48.784;9.190;2022-12-07T18:12:19;7.10;99.90
10964;DHT22;5534;48.784;9.190;2022-12-07T18:14:45;7.10;99.90
10964;DHT22;5534;48.784;9.190;2022-12-07T18:17:11;7.20;99.90
10964;DHT22;5534;48.784;9.190;2022-12-07T18:19:37;7.10;99.90
10964;DHT22;5534;48.784;9.190;2022-12-07T18:22:03;7.10;99.90